Time,TemperatureF,DewpointF,PressureIn,WindDirection,WindDirectionDegrees,WindSpeedMPH,WindSpeedGustMPH,Humidity,HourlyPrecipIn,Conditions,Clouds,dailyrainin,SolarRadiationWatts/m^2,SoftwareType,DateUTC
2013-03-14 00:22:00,36.0,27.0,-100.00,North,-999,1.0,5.0,69,0.00,,,0.00,1.000000,,2013-03-14 06:22:00,
2013-03-14 00:32:00,36.0,27.0,-100.00,North,-999,1.0,5.0,69,0.00,,,0.00,1.000000,,2013-03-14 06:32:00,
2013-03-14 00:42:00,36.0,27.0,-100.00,North,-999,1.0,5.0,69,0.00,,,0.00,1.000000,,2013-03-14 06:42:00,
2013-03-14 00:52:00,36.0,27.0,-100.00,North,-999,1.0,5.0,69,0.00,,,0.00,1.000000,,2013-03-14 06:52:00,
2013-03-14 01:22:00,33.0,26.0,-100.00,North,-999,3.0,5.0,74,0.00,,,0.00,0.000000,,2013-03-14 07:22:00,
2013-03-14 01:32:00,33.0,26.0,-100.00,North,-999,3.0,5.0,74,0.00,,,0.00,0.000000,,2013-03-14 07:32:00,
2013-03-14 01:42:00,33.0,26.0,-100.00,North,-999,3.0,5.0,74,0.00,,,0.00,0.000000,,2013-03-14 07:42:00,
2013-03-14 01:52:00,33.0,26.0,-100.00,North,-999,3.0,5.0,74,0.00,,,0.00,0.000000,,2013-03-14 07:52:00,
2013-03-14 02:21:00,32.0,26.0,-100.00,North,-999,7.0,9.0,78,0.00,,,0.00,0.000000,,2013-03-14 08:21:00,
2013-03-14 02:32:00,32.0,26.0,-100.00,North,-999,7.0,9.0,78,0.00,,,0.00,0.000000,,2013-03-14 08:32:00,
2013-03-14 02:41:00,32.0,26.0,-100.00,North,-999,7.0,9.0,78,0.00,,,0.00,0.000000,,2013-03-14 08:41:00,
2013-03-14 02:51:00,32.0,26.0,-100.00,North,-999,7.0,9.0,78,0.00,,,0.00,0.000000,,2013-03-14 08:51:00,
2013-03-14 03:22:00,31.0,24.0,-100.00,North,-999,3.0,9.0,76,0.00,,,0.00,0.000000,,2013-03-14 09:22:00,
2013-03-14 03:32:00,31.0,24.0,-100.00,North,-999,3.0,9.0,76,0.00,,,0.00,0.000000,,2013-03-14 09:32:00,
2013-03-14 03:42:00,31.0,24.0,-100.00,North,-999,3.0,9.0,76,0.00,,,0.00,0.000000,,2013-03-14 09:42:00,
2013-03-14 03:51:00,31.0,24.0,-100.00,North,-999,3.0,9.0,76,0.00,,,0.00,0.000000,,2013-03-14 09:51:00,
2013-03-14 04:22:00,28.0,24.0,-100.00,North,-999,2.0,5.0,84,0.00,,,0.00,0.000000,,2013-03-14 10:22:00,
2013-03-14 04:32:00,28.0,24.0,-100.00,North,-999,2.0,5.0,84,0.00,,,0.00,0.000000,,2013-03-14 10:32:00,
2013-03-14 04:42:00,28.0,24.0,-100.00,North,-999,2.0,5.0,84,0.00,,,0.00,0.000000,,2013-03-14 10:42:00,
2013-03-14 04:52:00,28.0,24.0,-100.00,North,-999,2.0,5.0,84,0.00,,,0.00,0.000000,,2013-03-14 10:52:00,
2013-03-14 05:12:00,27.0,23.0,-100.00,North,-999,2.0,4.0,86,0.00,,,0.00,1.000000,,2013-03-14 11:12:00,
2013-03-14 05:22:00,27.0,23.0,-100.00,North,-999,2.0,4.0,86,0.00,,,0.00,1.000000,,2013-03-14 11:22:00,
2013-03-14 05:32:00,27.0,23.0,-100.00,North,-999,2.0,4.0,86,0.00,,,0.00,1.000000,,2013-03-14 11:32:00,
2013-03-14 05:42:00,27.0,23.0,-100.00,North,-999,2.0,4.0,86,0.00,,,0.00,1.000000,,2013-03-14 11:42:00,
2013-03-14 05:52:00,27.0,23.0,-100.00,North,-999,2.0,4.0,86,0.00,,,0.00,1.000000,,2013-03-14 11:52:00,
2013-03-14 06:22:00,28.0,24.0,-100.00,North,-999,4.0,8.0,83,0.00,,,0.00,1.000000,,2013-03-14 12:22:00,
2013-03-14 06:33:00,28.0,24.0,-100.00,North,-999,4.0,8.0,83,0.00,,,0.00,1.000000,,2013-03-14 12:33:00,
2013-03-14 06:42:00,28.0,24.0,-100.00,North,-999,4.0,8.0,83,0.00,,,0.00,1.000000,,2013-03-14 12:42:00,
2013-03-14 06:51:00,28.0,24.0,-100.00,North,-999,4.0,8.0,83,0.00,,,0.00,1.000000,,2013-03-14 12:51:00,
2013-03-14 07:22:00,27.0,23.0,-100.00,North,-999,4.0,7.0,84,0.00,,,0.00,0.000000,,2013-03-14 13:22:00,
2013-03-14 07:32:00,27.0,23.0,-100.00,North,-999,4.0,7.0,84,0.00,,,0.00,0.000000,,2013-03-14 13:32:00,
2013-03-14 07:42:00,27.0,23.0,-100.00,North,-999,4.0,7.0,84,0.00,,,0.00,0.000000,,2013-03-14 13:42:00,
2013-03-14 07:52:00,27.0,23.0,-100.00,North,-999,4.0,7.0,84,0.00,,,0.00,0.000000,,2013-03-14 13:52:00,
2013-03-14 08:22:00,26.0,23.0,-100.00,North,-999,2.0,4.0,89,0.00,,,0.00,6.000000,,2013-03-14 14:22:00,
2013-03-14 08:32:00,26.0,23.0,-100.00,North,-999,2.0,4.0,89,0.00,,,0.00,6.000000,,2013-03-14 14:32:00,
2013-03-14 08:42:00,26.0,23.0,-100.00,North,-999,2.0,4.0,89,0.00,,,0.00,6.000000,,2013-03-14 14:42:00,
2013-03-14 08:52:00,26.0,23.0,-100.00,North,-999,2.0,4.0,89,0.00,,,0.00,6.000000,,2013-03-14 14:52:00,
2013-03-14 09:22:00,29.0,22.0,-100.00,North,-999,3.0,5.0,76,0.00,,,0.00,92.000000,,2013-03-14 15:22:00,
2013-03-14 09:32:00,29.0,22.0,-100.00,North,-999,3.0,5.0,76,0.00,,,0.00,92.000000,,2013-03-14 15:32:00,
2013-03-14 09:42:00,29.0,22.0,-100.00,North,-999,3.0,5.0,76,0.00,,,0.00,92.000000,,2013-03-14 15:42:00,
2013-03-14 09:52:00,29.0,22.0,-100.00,North,-999,3.0,5.0,76,0.00,,,0.00,92.000000,,2013-03-14 15:52:00,
2013-03-14 10:22:00,33.0,24.0,-100.00,North,-999,5.0,7.0,69,0.00,,,0.00,280.000000,,2013-03-14 16:22:00,
2013-03-14 10:32:00,33.0,24.0,-100.00,North,-999,5.0,7.0,69,0.00,,,0.00,280.000000,,2013-03-14 16:32:00,
2013-03-14 10:42:00,33.0,24.0,-100.00,North,-999,5.0,7.0,69,0.00,,,0.00,280.000000,,2013-03-14 16:42:00,
2013-03-14 10:52:00,33.0,24.0,-100.00,North,-999,5.0,7.0,69,0.00,,,0.00,280.000000,,2013-03-14 16:52:00,
2013-03-14 11:23:00,36.0,26.0,-100.00,North,-999,5.0,7.0,66,0.00,,,0.00,434.000000,,2013-03-14 17:23:00,
2013-03-14 11:32:00,36.0,26.0,-100.00,North,-999,5.0,7.0,66,0.00,,,0.00,434.000000,,2013-03-14 17:32:00,
2013-03-14 11:42:00,36.0,26.0,-100.00,North,-999,5.0,7.0,66,0.00,,,0.00,434.000000,,2013-03-14 17:42:00,
2013-03-14 11:52:00,36.0,26.0,-100.00,North,-999,5.0,7.0,66,0.00,,,0.00,434.000000,,2013-03-14 17:52:00,
2013-03-14 12:22:00,50.0,28.0,-100.00,North,-999,0.0,4.0,43,0.00,,,0.00,573.000000,,2013-03-14 18:22:00,
2013-03-14 13:22:00,49.0,30.0,-100.00,North,-999,2.0,3.0,47,0.00,,,0.00,677.000000,,2013-03-14 19:22:00,
2013-03-14 13:32:00,49.0,30.0,-100.00,North,-999,2.0,3.0,47,0.00,,,0.00,677.000000,,2013-03-14 19:32:00,
2013-03-14 13:42:00,49.0,30.0,-100.00,North,-999,2.0,3.0,47,0.00,,,0.00,677.000000,,2013-03-14 19:42:00,
2013-03-14 13:52:00,49.0,30.0,-100.00,North,-999,2.0,3.0,47,0.00,,,0.00,677.000000,,2013-03-14 19:52:00,
2013-03-14 15:22:00,44.0,31.0,-100.00,North,-999,8.0,12.0,59,-99.99,,,0.00,710.000000,,2013-03-14 21:22:00,
2013-03-14 15:32:00,44.0,31.0,-100.00,North,-999,8.0,12.0,59,-99.99,,,0.00,710.000000,,2013-03-14 21:32:00,
2013-03-14 16:23:00,54.0,28.0,-100.00,North,-999,1.0,12.0,36,-99.99,,,0.00,562.000000,,2013-03-14 22:23:00,
2013-03-14 16:33:00,54.0,28.0,-100.00,North,-999,1.0,12.0,36,-99.99,,,0.00,562.000000,,2013-03-14 22:33:00,
2013-03-14 16:42:00,54.0,28.0,-100.00,North,-999,1.0,12.0,36,-99.99,,,0.00,562.000000,,2013-03-14 22:42:00,
2013-03-14 16:52:00,54.0,28.0,-100.00,North,-999,1.0,12.0,36,-99.99,,,0.00,562.000000,,2013-03-14 22:52:00,
2013-03-14 17:22:00,48.0,24.0,-100.00,North,-999,9.0,15.0,38,0.00,,,0.00,406.000000,,2013-03-14 23:22:00,
2013-03-14 17:33:00,48.0,24.0,-100.00,North,-999,9.0,15.0,38,0.00,,,0.00,406.000000,,2013-03-14 23:33:00,
2013-03-14 17:42:00,48.0,24.0,-100.00,North,-999,9.0,15.0,38,0.00,,,0.00,406.000000,,2013-03-14 23:42:00,
2013-03-14 17:52:00,48.0,24.0,-100.00,North,-999,9.0,15.0,38,0.00,,,0.00,406.000000,,2013-03-14 23:52:00,
2013-03-14 18:22:00,48.0,24.0,-100.00,North,-999,13.0,22.0,38,0.00,,,0.00,244.000000,,2013-03-15 00:22:00,
2013-03-14 18:32:00,48.0,24.0,-100.00,North,-999,13.0,22.0,38,0.00,,,0.00,244.000000,,2013-03-15 00:32:00,
2013-03-14 18:42:00,48.0,24.0,-100.00,North,-999,13.0,22.0,38,0.00,,,0.00,244.000000,,2013-03-15 00:42:00,
2013-03-14 18:52:00,48.0,24.0,-100.00,North,-999,13.0,22.0,38,0.00,,,0.00,244.000000,,2013-03-15 00:52:00,
2013-03-14 19:22:00,44.0,26.0,-100.00,North,-999,5.0,17.0,48,0.00,,,0.00,57.000000,,2013-03-15 01:22:00,
2013-03-14 19:32:00,44.0,26.0,-100.00,North,-999,5.0,17.0,48,0.00,,,0.00,57.000000,,2013-03-15 01:32:00,
2013-03-14 19:42:00,44.0,26.0,-100.00,North,-999,5.0,17.0,48,0.00,,,0.00,57.000000,,2013-03-15 01:42:00,
2013-03-14 19:52:00,44.0,26.0,-100.00,North,-999,5.0,17.0,48,0.00,,,0.00,57.000000,,2013-03-15 01:52:00,
2013-03-14 20:22:00,41.0,25.0,-100.00,North,-999,5.0,9.0,53,0.00,,,0.00,9.000000,,2013-03-15 02:22:00,
2013-03-14 20:32:00,41.0,25.0,-100.00,North,-999,5.0,9.0,53,0.00,,,0.00,9.000000,,2013-03-15 02:32:00,
2013-03-14 20:42:00,41.0,25.0,-100.00,North,-999,5.0,9.0,53,0.00,,,0.00,9.000000,,2013-03-15 02:42:00,
2013-03-14 20:52:00,41.0,25.0,-100.00,North,-999,5.0,9.0,53,0.00,,,0.00,9.000000,,2013-03-15 02:52:00,
2013-03-14 21:22:00,41.0,25.0,-100.00,North,-999,5.0,12.0,53,0.00,,,0.00,1.000000,,2013-03-15 03:22:00,
2013-03-14 21:32:00,41.0,25.0,-100.00,North,-999,5.0,12.0,53,0.00,,,0.00,1.000000,,2013-03-15 03:32:00,
2013-03-14 21:42:00,41.0,25.0,-100.00,North,-999,5.0,12.0,53,0.00,,,0.00,1.000000,,2013-03-15 03:42:00,
2013-03-14 21:52:00,41.0,25.0,-100.00,North,-999,5.0,12.0,53,0.00,,,0.00,1.000000,,2013-03-15 03:52:00,
2013-03-14 22:22:00,42.0,24.0,-100.00,North,-999,12.0,16.0,49,0.00,,,0.00,1.000000,,2013-03-15 04:22:00,
2013-03-14 22:32:00,42.0,24.0,-100.00,North,-999,12.0,16.0,49,0.00,,,0.00,1.000000,,2013-03-15 04:32:00,
2013-03-14 22:42:00,42.0,24.0,-100.00,North,-999,12.0,16.0,49,0.00,,,0.00,1.000000,,2013-03-15 04:42:00,
2013-03-14 22:52:00,42.0,24.0,-100.00,North,-999,12.0,16.0,49,0.00,,,0.00,1.000000,,2013-03-15 04:52:00,
2013-03-14 23:22:00,40.0,26.0,-100.00,North,-999,12.0,18.0,56,0.00,,,0.00,1.000000,,2013-03-15 05:22:00,
2013-03-14 23:32:00,40.0,26.0,-100.00,North,-999,12.0,18.0,56,0.00,,,0.00,1.000000,,2013-03-15 05:32:00,
2013-03-14 23:42:00,40.0,26.0,-100.00,North,-999,12.0,18.0,56,0.00,,,0.00,1.000000,,2013-03-15 05:42:00,
2013-03-14 23:52:00,40.0,26.0,-100.00,North,-999,12.0,18.0,56,0.00,,,0.00,1.000000,,2013-03-15 05:52:00,